createdAt,value
2018-08-23T14:58:03.189Z,10.33
2018-08-23T15:00:33.159Z,12.00
2018-08-23T15:03:03.979Z,11.25
2018-08-23T15:05:33.992Z,8.68
2018-08-23T15:08:03.361Z,9.50
2018-08-23T15:10:32.713Z,8.75
2018-08-23T15:13:02.395Z,8.25
2018-08-23T15:15:37.313Z,9.50
2018-08-23T15:18:07.384Z,10.28
2018-08-23T15:20:38.316Z,8.98
2018-08-23T15:23:09.144Z,5.20
2018-08-23T15:25:39.751Z,6.45
2018-08-23T15:28:09.974Z,5.95
2018-08-23T15:30:40.248Z,5.80
2018-08-23T15:33:10.859Z,7.08
2018-08-23T15:35:41.015Z,6.10
2018-08-23T15:38:12.407Z,6.78
2018-08-23T15:40:42.655Z,5.33
2018-08-23T15:43:13.675Z,6.33
2018-08-23T15:45:43.814Z,7.30
2018-08-23T15:48:13.917Z,4.03
2018-08-23T15:50:43.729Z,4.80
2018-08-23T15:53:14.019Z,8.40
2018-08-23T15:55:44.297Z,5.42
2018-08-23T15:58:15.430Z,6.55
2018-08-23T16:00:45.417Z,6.47
2018-08-23T16:03:16.820Z,5.72
2018-08-23T16:05:46.485Z,4.17
2018-08-23T16:08:16.670Z,7.70
2018-08-23T16:10:46.307Z,6.62
2018-08-23T16:13:16.581Z,8.05
2018-08-23T16:15:46.476Z,6.60
2018-08-23T16:18:21.667Z,8.48
2018-08-23T16:20:55.074Z,6.60
2018-08-23T16:23:24.761Z,10.18
2018-08-23T16:25:54.758Z,10.23
2018-08-23T16:28:24.509Z,5.45
2018-08-23T16:30:55.491Z,6.60
2018-08-23T16:33:25.296Z,6.42
2018-08-23T16:35:55.040Z,7.70
2018-08-23T16:38:25.288Z,4.70
2018-08-23T16:40:56.146Z,5.90
2018-08-23T16:43:26.596Z,6.12
2018-08-23T16:45:57.272Z,6.90
2018-08-23T16:48:27.562Z,6.55
2018-08-23T16:50:57.371Z,5.45
2018-08-23T16:53:27.209Z,7.60
2018-08-23T16:55:56.978Z,5.40
2018-08-23T16:58:26.956Z,7.00
2018-08-23T17:00:58.096Z,6.70
2018-08-23T17:03:28.143Z,5.65
2018-08-23T17:05:57.832Z,6.15
2018-08-23T17:08:28.530Z,6.37
2018-08-23T17:10:59.032Z,6.78
2018-08-23T17:13:34.308Z,6.97
2018-08-23T17:16:09.456Z,10.05
2018-08-23T17:18:39.094Z,8.03
2018-08-23T17:21:09.950Z,8.55
2018-08-23T17:23:39.859Z,8.43
2018-08-23T17:26:09.675Z,7.47
2018-08-23T17:28:39.106Z,7.42
2018-08-23T17:31:08.585Z,7.28
2018-08-23T17:33:38.246Z,8.23
2018-08-23T17:36:09.330Z,13.32
2018-08-23T17:38:38.907Z,6.33
2018-08-23T17:41:08.438Z,6.15
2018-08-23T17:43:38.407Z,6.97
2018-08-23T17:46:08.373Z,6.30
2018-08-23T17:48:38.037Z,7.42
2018-08-23T17:51:07.967Z,9.85
2018-08-23T17:53:38.186Z,7.03
2018-08-23T17:56:08.468Z,5.40
2018-08-23T17:58:38.928Z,6.42
2018-08-23T18:01:08.891Z,7.37
2018-08-23T18:03:39.362Z,6.65
2018-08-23T18:06:09.219Z,8.60
2018-08-23T18:08:39.215Z,6.03
2018-08-23T18:11:09.241Z,15.43
2018-08-23T18:13:39.037Z,11.68
2018-08-23T18:16:14.182Z,15.90
2018-08-23T18:18:43.808Z,11.90
2018-08-23T18:21:14.319Z,8.60
2018-08-23T18:23:44.339Z,8.58
2018-08-23T18:26:14.163Z,9.25
2018-08-23T18:28:43.807Z,5.00
2018-08-23T18:31:12.959Z,8.27
2018-08-23T18:33:42.019Z,8.88
2018-08-23T18:36:11.978Z,10.50
2018-08-23T18:38:41.573Z,6.33
2018-08-23T18:41:11.619Z,8.25
2018-08-23T18:43:41.665Z,7.20
2018-08-23T18:46:11.319Z,4.50
2018-08-23T18:48:40.555Z,7.05
2018-08-23T18:51:11.371Z,8.73
2018-08-23T18:53:43.616Z,7.30
2018-08-23T18:56:12.932Z,6.03
2018-08-23T18:58:42.137Z,6.27
2018-08-23T19:01:13.415Z,6.53
2018-08-23T19:03:42.574Z,9.63
2018-08-23T19:06:12.422Z,4.80
2018-08-23T19:08:41.434Z,6.07
2018-08-23T19:11:10.916Z,6.30
2018-08-23T19:13:39.829Z,5.93
2018-08-23T19:16:14.332Z,6.53
2018-08-23T19:18:44.506Z,7.10
2018-08-23T19:21:16.599Z,6.73
2018-08-23T19:23:46.384Z,6.93
2018-08-23T19:26:15.884Z,5.70
2018-08-23T19:28:45.441Z,8.37
2018-08-23T19:31:14.444Z,6.73
2018-08-23T19:33:44.286Z,7.10
2018-08-23T19:36:13.359Z,6.63
2018-08-23T19:38:42.439Z,5.67
2018-08-23T19:41:11.897Z,6.30
2018-08-23T19:43:41.179Z,6.57
2018-08-23T19:46:15.472Z,6.57
2018-08-23T19:48:45.601Z,6.07
2018-08-23T19:51:15.104Z,6.97
2018-08-23T19:53:44.063Z,9.10
2018-08-23T19:56:13.053Z,8.00
2018-08-23T19:58:42.636Z,11.43
2018-08-23T20:01:11.515Z,9.27
2018-08-23T20:03:40.680Z,17.83
2018-08-23T20:06:09.540Z,9.70
2018-08-23T20:08:38.796Z,9.40
2018-08-23T20:11:07.674Z,10.20
2018-08-23T20:13:36.550Z,10.43
2018-08-23T20:16:05.988Z,9.10
2018-08-23T20:18:35.059Z,7.70
2018-08-23T20:21:04.154Z,7.93
2018-08-23T20:23:33.520Z,8.37
2018-08-23T20:26:03.889Z,14.77
2018-08-23T20:28:34.290Z,11.73
2018-08-23T20:31:03.713Z,8.40
2018-08-23T20:33:36.575Z,8.43
2018-08-23T20:36:07.595Z,9.50
2018-08-23T20:38:36.666Z,7.93
2018-08-23T20:41:06.242Z,11.97
2018-08-23T20:43:35.800Z,10.03
2018-08-23T20:46:06.406Z,8.07
2018-08-23T20:48:35.944Z,7.90
2018-08-23T20:51:05.247Z,7.20
2018-08-23T20:53:34.705Z,7.40
2018-08-23T20:56:04.483Z,7.03
2018-08-23T20:58:34.473Z,8.27
2018-08-23T21:01:09.298Z,8.97
2018-08-23T21:03:39.277Z,10.73
2018-08-23T21:06:15.237Z,8.20
2018-08-23T21:08:44.281Z,7.53
2018-08-23T21:11:13.814Z,7.97
2018-08-23T21:13:42.757Z,8.87
2018-08-23T21:16:11.760Z,8.50
2018-08-23T21:18:40.841Z,9.53
2018-08-23T21:21:10.092Z,10.67
2018-08-23T21:23:39.447Z,7.87
2018-08-23T21:26:08.836Z,12.53
2018-08-23T21:28:37.957Z,11.67
2018-08-23T21:31:07.216Z,9.37
2018-08-23T21:33:36.613Z,11.87
2018-08-23T21:36:06.101Z,9.70
2018-08-23T21:38:35.653Z,10.60
2018-08-23T21:41:05.061Z,9.03
2018-08-23T21:43:34.282Z,8.90
2018-08-23T21:46:03.419Z,8.80
2018-08-23T21:48:32.614Z,9.27
2018-08-23T21:51:01.487Z,12.27
2018-08-23T21:53:30.617Z,8.83
2018-08-23T21:55:59.746Z,9.27
2018-08-23T21:58:28.542Z,10.67
2018-08-23T22:01:03.052Z,9.23
2018-08-23T22:03:32.221Z,11.30
2018-08-23T22:06:01.576Z,9.03
2018-08-23T22:08:31.111Z,7.37
2018-08-23T22:11:00.305Z,7.90
2018-08-23T22:13:29.370Z,11.80
2018-08-23T22:15:58.239Z,8.03
2018-08-23T22:18:27.795Z,8.43
2018-08-23T22:20:56.948Z,8.10
2018-08-23T22:23:25.757Z,9.33
2018-08-23T22:25:54.989Z,10.03
2018-08-23T22:28:24.363Z,8.17
2018-08-23T22:30:53.977Z,9.27
2018-08-23T22:33:23.807Z,7.40
2018-08-23T22:35:53.324Z,7.93
2018-08-23T22:38:22.492Z,7.90
2018-08-23T22:40:51.748Z,7.17
2018-08-23T22:43:21.949Z,8.47
2018-08-23T22:45:52.440Z,7.63
2018-08-23T22:48:21.926Z,9.93
2018-08-23T22:50:51.224Z,13.63
2018-08-23T22:53:20.762Z,10.10
2018-08-23T22:55:50.025Z,10.33
2018-08-23T22:58:19.185Z,11.50
2018-08-23T23:00:48.656Z,12.53
2018-08-23T23:03:23.894Z,11.77
2018-08-23T23:05:53.720Z,10.43
2018-08-23T23:08:23.038Z,10.63
2018-08-23T23:10:52.316Z,9.97
2018-08-23T23:13:22.156Z,10.90
2018-08-23T23:15:51.326Z,11.63
2018-08-23T23:18:20.287Z,9.40
2018-08-23T23:20:49.094Z,9.03
2018-08-23T23:23:17.861Z,11.93
2018-08-23T23:25:46.625Z,9.73
2018-08-23T23:28:15.446Z,8.43
2018-08-23T23:30:44.577Z,13.80
2018-08-23T23:33:13.577Z,9.63
2018-08-23T23:35:42.929Z,11.20
2018-08-23T23:38:11.799Z,12.40
2018-08-23T23:40:40.633Z,16.50
2018-08-23T23:43:10.108Z,23.67
2018-08-23T23:45:39.549Z,33.93
2018-08-23T23:48:08.649Z,35.23
2018-08-23T23:50:37.890Z,38.47
2018-08-23T23:53:07.236Z,45.80
2018-08-23T23:55:36.282Z,42.37
2018-08-23T23:58:05.681Z,46.40
